createdAt,value
2023-08-15T00:00:17.546Z,100710.44
2023-08-15T00:02:49.554Z,100706.88
2023-08-15T00:05:21.733Z,100703.66
2023-08-15T00:07:54.817Z,100700.34
2023-08-15T00:10:26.815Z,100692.75
2023-08-15T00:12:58.680Z,100690.97
2023-08-15T00:15:31.656Z,100692.88
2023-08-15T00:18:03.641Z,100686.50
2023-08-15T00:20:35.365Z,100682.47
2023-08-15T00:23:09.395Z,100691.09
2023-08-15T00:25:41.296Z,100689.47
2023-08-15T00:28:13.273Z,100686.47
2023-08-15T00:30:45.177Z,100696.19
2023-08-15T00:33:17.060Z,100682.94
2023-08-15T00:35:48.998Z,100687.44
2023-08-15T00:38:22.050Z,100692.06
2023-08-15T00:40:54.067Z,100689.56
2023-08-15T00:43:25.929Z,100686.50
2023-08-15T00:45:58.033Z,100680.94
2023-08-15T00:48:31.230Z,100691.66
2023-08-15T00:51:05.641Z,100685.50
2023-08-15T00:53:40.242Z,100693.66
2023-08-15T00:56:14.786Z,100694.13
2023-08-15T00:58:46.554Z,100692.34
2023-08-15T01:01:23.219Z,100689.28
2023-08-15T01:03:55.722Z,100689.75
2023-08-15T01:06:27.487Z,100684.66
2023-08-15T01:09:02.076Z,100686.19
2023-08-15T01:11:41.782Z,100681.88
2023-08-15T01:14:19.894Z,100675.75
2023-08-15T01:16:54.429Z,100675.38
2023-08-15T01:19:37.283Z,100674.91
2023-08-15T01:22:17.107Z,100672.19
2023-08-15T01:24:51.902Z,100671.00
2023-08-15T01:27:23.800Z,100675.50
2023-08-15T01:29:56.519Z,100665.50
2023-08-15T01:32:39.381Z,100674.28
2023-08-15T01:35:17.390Z,100670.38
2023-08-15T01:37:55.920Z,100672.72
2023-08-15T01:40:30.808Z,100674.88
2023-08-15T01:43:05.136Z,100670.94
2023-08-15T01:45:38.087Z,100668.91
2023-08-15T01:48:12.304Z,100672.94
2023-08-15T01:50:42.191Z,100669.38
2023-08-15T01:53:14.168Z,100664.50
2023-08-15T01:55:47.203Z,100666.19
2023-08-15T01:58:19.200Z,100665.81
2023-08-15T02:00:51.064Z,100668.78
2023-08-15T02:03:23.039Z,100666.06
2023-08-15T02:05:55.022Z,100667.09
2023-08-15T02:08:26.924Z,100664.84
2023-08-15T02:11:00.082Z,100664.69
2023-08-15T02:13:34.552Z,100652.22
2023-08-15T02:16:06.395Z,100654.50
2023-08-15T02:18:41.412Z,100653.66
2023-08-15T02:21:13.875Z,100663.94
2023-08-15T02:23:45.747Z,100654.34
2023-08-15T02:26:19.543Z,100653.28
2023-08-15T02:28:51.210Z,100660.00
2023-08-15T02:31:23.597Z,100658.94
2023-08-15T02:33:57.310Z,100653.38
2023-08-15T02:36:29.216Z,100654.28
2023-08-15T02:39:03.743Z,100643.28
2023-08-15T02:41:36.740Z,100649.56
2023-08-15T02:44:09.381Z,100647.03
2023-08-15T02:46:41.338Z,100648.34
2023-08-15T02:49:14.017Z,100649.63
2023-08-15T02:51:45.954Z,100647.38
2023-08-15T02:54:17.913Z,100639.22
2023-08-15T02:56:50.872Z,100639.66
2023-08-15T02:59:22.904Z,100645.47
2023-08-15T03:01:54.783Z,100647.97
2023-08-15T03:04:26.758Z,100652.00
2023-08-15T03:06:58.609Z,100652.19
2023-08-15T03:09:30.484Z,100656.59
2023-08-15T03:12:03.810Z,100652.66
2023-08-15T03:14:35.971Z,100648.88
2023-08-15T03:17:08.693Z,100653.97
2023-08-15T03:19:40.395Z,100662.41
2023-08-15T03:22:12.832Z,100676.56
2023-08-15T03:24:44.772Z,100676.09
2023-08-15T03:27:17.964Z,100663.53
2023-08-15T03:29:49.865Z,100657.06
2023-08-15T03:32:21.865Z,100667.19
2023-08-15T03:34:53.587Z,100668.94
2023-08-15T03:37:25.504Z,100670.56
2023-08-15T03:39:57.408Z,100656.59
2023-08-15T03:42:30.510Z,100658.50
2023-08-15T03:45:02.351Z,100661.22
2023-08-15T03:47:34.274Z,100659.31
2023-08-15T03:50:06.347Z,100654.34
2023-08-15T03:52:38.427Z,100647.84
2023-08-15T03:55:11.133Z,100646.78
2023-08-15T03:57:44.145Z,100650.56
2023-08-15T04:00:19.642Z,100653.75
2023-08-15T04:02:51.660Z,100646.41
2023-08-15T04:05:25.497Z,100641.50
2023-08-15T04:07:57.164Z,100632.69
2023-08-15T04:10:29.104Z,100643.81
2023-08-15T04:13:02.375Z,100640.22
2023-08-15T04:15:34.399Z,100635.66
2023-08-15T04:18:06.662Z,100627.34
2023-08-15T04:20:39.806Z,100632.31
2023-08-15T04:23:13.156Z,100636.91
2023-08-15T04:25:45.157Z,100637.94
2023-08-15T04:28:18.390Z,100641.31
2023-08-15T04:30:50.255Z,100639.88
2023-08-15T04:33:22.527Z,100659.75
2023-08-15T04:35:54.306Z,100659.97
2023-08-15T04:38:27.136Z,100667.72
2023-08-15T04:40:59.433Z,100664.41
2023-08-15T04:43:32.481Z,100670.91
2023-08-15T04:46:05.916Z,100672.56
2023-08-15T04:48:37.869Z,100678.84
2023-08-15T04:51:09.556Z,100692.72
2023-08-15T04:53:41.433Z,100701.91
2023-08-15T04:56:14.087Z,100695.44
2023-08-15T04:58:47.933Z,100703.34
2023-08-15T05:01:19.879Z,100705.00
2023-08-15T05:03:51.770Z,100709.63
2023-08-15T05:06:23.704Z,100716.50
2023-08-15T05:08:55.689Z,100716.50
2023-08-15T05:11:28.821Z,100719.81
2023-08-15T05:14:03.499Z,100712.50
2023-08-15T05:16:35.172Z,100720.22
2023-08-15T05:19:07.167Z,100711.84
2023-08-15T05:21:39.161Z,100705.34
2023-08-15T05:24:12.380Z,100709.72
2023-08-15T05:26:44.259Z,100700.06
2023-08-15T05:29:17.529Z,100706.94
2023-08-15T05:31:49.376Z,100705.06
2023-08-15T05:34:21.249Z,100700.88
2023-08-15T05:36:53.123Z,100692.03
2023-08-15T05:39:25.100Z,100702.03
2023-08-15T05:41:56.936Z,100694.00
2023-08-15T05:44:30.396Z,100687.28
2023-08-15T05:47:02.380Z,100685.75
2023-08-15T05:49:34.177Z,100714.19
2023-08-15T05:52:06.073Z,100721.88
2023-08-15T05:54:37.947Z,100732.31
2023-08-15T05:57:09.753Z,100743.81
2023-08-15T05:59:43.069Z,100748.81
2023-08-15T06:02:15.033Z,100736.88
2023-08-15T06:04:46.977Z,100743.94
2023-08-15T06:07:19.242Z,100744.78
2023-08-15T06:09:51.500Z,100750.22
2023-08-15T06:12:23.172Z,100750.22
2023-08-15T06:14:56.191Z,100748.56
2023-08-15T06:17:28.176Z,100754.00
2023-08-15T06:20:00.139Z,100765.50
2023-08-15T06:22:32.254Z,100763.63
2023-08-15T06:25:04.182Z,100764.66
2023-08-15T06:27:36.176Z,100748.34
2023-08-15T06:30:11.764Z,100752.13
2023-08-15T06:32:45.210Z,100761.94
2023-08-15T06:35:17.167Z,100761.34
2023-08-15T06:37:49.051Z,100766.16
2023-08-15T06:40:21.123Z,100785.22
2023-08-15T06:42:53.027Z,100817.47
2023-08-15T06:45:27.123Z,100826.09
2023-08-15T06:47:59.092Z,100839.91
2023-08-15T06:50:31.025Z,100847.91
2023-08-15T06:53:02.906Z,100861.97
2023-08-15T06:55:34.906Z,100867.84
2023-08-15T06:58:06.821Z,100872.66
2023-08-15T07:00:40.243Z,100880.22
2023-08-15T07:03:12.589Z,100891.31
2023-08-15T07:05:45.112Z,100907.47
2023-08-15T07:08:17.210Z,100906.63
2023-08-15T07:10:48.939Z,100894.91
2023-08-15T07:13:20.793Z,100884.91
2023-08-15T07:15:59.030Z,100850.41
2023-08-15T07:18:30.993Z,100822.78
2023-08-15T07:21:04.293Z,100828.81
2023-08-15T07:23:36.196Z,100799.53
2023-08-15T07:26:08.056Z,100778.38
2023-08-15T07:28:39.947Z,100741.06
2023-08-15T07:31:12.931Z,100727.00
2023-08-15T07:33:44.891Z,100708.16
2023-08-15T07:36:16.762Z,100704.72
2023-08-15T07:38:48.669Z,100697.56
2023-08-15T07:41:20.576Z,100735.72
2023-08-15T07:43:52.538Z,100769.16
2023-08-15T07:46:26.166Z,100779.00
2023-08-15T07:48:58.395Z,100757.03
2023-08-15T07:51:32.727Z,100791.94
2023-08-15T07:54:04.598Z,100802.81
2023-08-15T07:56:36.440Z,100799.44
2023-08-15T07:59:11.089Z,100798.75
2023-08-15T08:01:44.375Z,100806.00
2023-08-15T08:04:16.293Z,100812.44
2023-08-15T08:06:49.670Z,100843.44
2023-08-15T08:09:21.370Z,100849.94
2023-08-15T08:11:53.636Z,100852.06
2023-08-15T08:14:25.336Z,100842.66
2023-08-15T08:16:58.420Z,100843.59
2023-08-15T08:19:30.269Z,100859.69
2023-08-15T08:22:02.123Z,100849.06
2023-08-15T08:24:34.106Z,100853.34
2023-08-15T08:27:06.203Z,100858.38
2023-08-15T08:29:38.197Z,100862.22
2023-08-15T08:32:11.549Z,100861.94
2023-08-15T08:34:43.448Z,100857.25
2023-08-15T08:37:15.391Z,100869.28
2023-08-15T08:39:47.269Z,100865.44
2023-08-15T08:42:19.400Z,100865.56
2023-08-15T08:44:52.135Z,100870.34
2023-08-15T08:47:30.281Z,100869.66
2023-08-15T08:50:03.992Z,100871.47
2023-08-15T08:52:39.948Z,100859.16
2023-08-15T08:55:13.630Z,100864.16
2023-08-15T08:57:54.281Z,100859.44
2023-08-15T09:00:34.939Z,100872.78
2023-08-15T09:03:08.258Z,100865.09
2023-08-15T09:05:42.425Z,100852.56
2023-08-15T09:08:14.344Z,100853.56
2023-08-15T09:10:46.391Z,100846.91
2023-08-15T09:13:25.363Z,100846.59
2023-08-15T09:15:59.346Z,100849.34
2023-08-15T09:18:36.990Z,100850.66
2023-08-15T09:21:13.880Z,100853.25
2023-08-15T09:23:48.466Z,100853.53
2023-08-15T09:26:20.380Z,100848.94
2023-08-15T09:28:53.328Z,100855.53
2023-08-15T09:31:25.320Z,100856.97
2023-08-15T09:33:58.462Z,100865.38
2023-08-15T09:36:32.730Z,100867.75
2023-08-15T09:39:10.009Z,100858.59
2023-08-15T09:41:47.982Z,100865.81
2023-08-15T09:44:37.684Z,100864.41
2023-08-15T09:47:12.296Z,100863.81
2023-08-15T09:49:45.862Z,100851.75
2023-08-15T09:52:19.223Z,100855.44
2023-08-15T09:54:52.216Z,100863.88
2023-08-15T09:57:24.183Z,100865.53
2023-08-15T09:59:56.406Z,100878.81
2023-08-15T10:02:31.461Z,100867.16
2023-08-15T10:05:08.214Z,100870.06
2023-08-15T10:07:43.039Z,100876.84
2023-08-15T10:10:16.062Z,100867.78
2023-08-15T10:12:51.546Z,100860.34
2023-08-15T10:15:25.205Z,100875.50
2023-08-15T10:17:59.267Z,100880.16
2023-08-15T10:20:38.541Z,100879.66
2023-08-15T10:23:11.825Z,100880.00
2023-08-15T10:25:44.874Z,100886.81
2023-08-15T10:28:17.987Z,100890.22
2023-08-15T10:30:52.918Z,100891.44
2023-08-15T10:33:28.206Z,100891.78
2023-08-15T10:36:13.186Z,100892.28
2023-08-15T10:38:47.000Z,100896.00
2023-08-15T10:41:21.448Z,100902.50
2023-08-15T10:43:56.825Z,100908.47
2023-08-15T10:46:32.371Z,100899.41
2023-08-15T10:49:09.795Z,100899.06
2023-08-15T10:51:44.279Z,100907.75
2023-08-15T10:54:19.054Z,100904.00
2023-08-15T10:56:52.056Z,100907.47
2023-08-15T10:59:24.332Z,100907.13
2023-08-15T11:01:56.879Z,100899.25
2023-08-15T11:04:32.112Z,100899.28
2023-08-15T11:07:05.360Z,100907.66
2023-08-15T11:09:37.376Z,100918.41
2023-08-15T11:12:10.555Z,100919.03
2023-08-15T11:14:43.195Z,100925.03
2023-08-15T11:17:16.505Z,100931.00
2023-08-15T11:19:48.467Z,100925.91
2023-08-15T11:22:22.820Z,100940.47
2023-08-15T11:24:55.780Z,100933.50
2023-08-15T11:27:27.647Z,100935.91
2023-08-15T11:30:03.527Z,100931.78
2023-08-15T11:32:36.615Z,100932.44
2023-08-15T11:35:11.449Z,100923.41
2023-08-15T11:37:46.595Z,100936.31
2023-08-15T11:40:18.589Z,100929.81
2023-08-15T11:42:51.381Z,100931.13
2023-08-15T11:45:26.053Z,100927.91
2023-08-15T11:48:02.459Z,100928.47
2023-08-15T11:50:44.305Z,100921.84
2023-08-15T11:53:19.804Z,100925.72
2023-08-15T11:55:52.884Z,100927.34
2023-08-15T11:58:34.884Z,100926.78
2023-08-15T12:01:10.040Z,100924.88
2023-08-15T12:03:43.045Z,100924.03
2023-08-15T12:06:16.893Z,100937.69
2023-08-15T12:08:50.792Z,100936.06
2023-08-15T12:11:25.867Z,100937.88
2023-08-15T12:13:57.582Z,100936.56
2023-08-15T12:16:29.470Z,100924.03
2023-08-15T12:19:01.399Z,100909.97
2023-08-15T12:21:33.240Z,100924.72
2023-08-15T12:24:06.401Z,100925.22
2023-08-15T12:26:38.308Z,100925.28
2023-08-15T12:29:10.193Z,100922.69
2023-08-15T12:31:43.104Z,100927.22
2023-08-15T12:34:15.221Z,100929.22
2023-08-15T12:36:47.285Z,100921.25
2023-08-15T12:39:20.511Z,100927.88
2023-08-15T12:41:52.734Z,100927.88
2023-08-15T12:44:24.470Z,100926.38
2023-08-15T12:46:56.441Z,100920.38
2023-08-15T12:49:28.508Z,100913.00
2023-08-15T12:52:00.522Z,100917.31
2023-08-15T12:54:34.104Z,100913.78
2023-08-15T12:57:06.578Z,100915.16
2023-08-15T12:59:38.510Z,100912.94
2023-08-15T13:02:10.553Z,100923.31
2023-08-15T13:04:42.552Z,100924.34
2023-08-15T13:07:14.515Z,100925.91
2023-08-15T13:09:47.749Z,100920.88
2023-08-15T13:12:20.367Z,100919.19
2023-08-15T13:14:52.550Z,100928.53
2023-08-15T13:17:24.726Z,100934.22
2023-08-15T13:19:56.479Z,100937.25
2023-08-15T13:22:28.407Z,100937.75
2023-08-15T13:25:05.013Z,100926.78
2023-08-15T13:27:37.068Z,100939.91
2023-08-15T13:30:10.869Z,100934.41
2023-08-15T13:32:42.772Z,100933.22
2023-08-15T13:35:14.568Z,100937.34
2023-08-15T13:37:46.574Z,100937.16
2023-08-15T13:40:19.953Z,100931.13
2023-08-15T13:42:51.838Z,100938.81
2023-08-15T13:45:23.765Z,100941.59
2023-08-15T13:47:55.788Z,100948.13
2023-08-15T13:50:27.643Z,100945.38
2023-08-15T13:52:59.542Z,100956.59
2023-08-15T13:55:33.412Z,100946.09
2023-08-15T13:58:05.601Z,100957.53
2023-08-15T14:00:37.398Z,100956.16
2023-08-15T14:03:09.199Z,100958.91
2023-08-15T14:05:41.078Z,100954.25
2023-08-15T14:08:12.991Z,100956.03
2023-08-15T14:10:45.957Z,100951.75
2023-08-15T14:13:17.914Z,100950.91
2023-08-15T14:15:49.963Z,100955.03
2023-08-15T14:18:21.903Z,100958.91
2023-08-15T14:20:53.790Z,100966.28
2023-08-15T14:23:25.697Z,100957.72
2023-08-15T14:26:00.741Z,100963.72
2023-08-15T14:28:36.740Z,100965.88
2023-08-15T14:31:09.278Z,100966.06
2023-08-15T14:33:40.928Z,100969.53
2023-08-15T14:36:12.827Z,100960.22
2023-08-15T14:38:45.906Z,100968.69
2023-08-15T14:41:19.887Z,100977.75
2023-08-15T14:43:51.724Z,100979.31
2023-08-15T14:46:23.602Z,100979.31
2023-08-15T14:48:55.559Z,100970.13
2023-08-15T14:51:27.473Z,100962.72
2023-08-15T14:53:59.365Z,100958.94
2023-08-15T14:56:32.610Z,100964.94
2023-08-15T14:59:04.297Z,100969.91
2023-08-15T15:01:36.307Z,100967.25
2023-08-15T15:04:06.690Z,100964.50
2023-08-15T15:06:42.303Z,100969.72
2023-08-15T15:09:14.231Z,100960.44
2023-08-15T15:11:47.402Z,100951.09
2023-08-15T15:14:19.329Z,100952.16
2023-08-15T15:16:51.381Z,100953.31
2023-08-15T15:19:23.507Z,100931.91
2023-08-15T15:21:56.688Z,100925.25
2023-08-15T15:24:29.034Z,100934.09
2023-08-15T15:27:03.471Z,100939.47
2023-08-15T15:29:35.155Z,100958.16
2023-08-15T15:32:06.236Z,100954.84
2023-08-15T15:34:38.388Z,100941.56
2023-08-15T15:37:10.253Z,100925.63
2023-08-15T15:39:42.021Z,100928.31
2023-08-15T15:42:15.170Z,100939.25
2023-08-15T15:44:47.048Z,100941.41
2023-08-15T15:47:19.022Z,100943.81
2023-08-15T15:49:50.982Z,100950.97
2023-08-15T15:52:21.133Z,100954.72
2023-08-15T15:54:52.970Z,100952.38
2023-08-15T15:57:25.976Z,100960.94
2023-08-15T15:59:57.938Z,100966.81
2023-08-15T16:02:30.912Z,100967.78
2023-08-15T16:05:02.825Z,100967.78
2023-08-15T16:07:34.756Z,100961.78
2023-08-15T16:10:07.251Z,100964.38
2023-08-15T16:12:40.505Z,100956.16
2023-08-15T16:15:13.778Z,100969.78
2023-08-15T16:17:47.123Z,100972.16
2023-08-15T16:20:19.247Z,100969.31
2023-08-15T16:22:51.203Z,100972.66
2023-08-15T16:25:23.966Z,100988.66
2023-08-15T16:27:58.236Z,100978.88
2023-08-15T16:30:29.954Z,100989.13
2023-08-15T16:33:03.702Z,100982.84
2023-08-15T16:35:36.059Z,100993.53
2023-08-15T16:38:08.029Z,100992.94
2023-08-15T16:40:39.709Z,100996.19
2023-08-15T16:43:18.909Z,100986.78
2023-08-15T16:45:51.094Z,100986.22
2023-08-15T16:48:23.110Z,100989.69
2023-08-15T16:50:54.978Z,100984.97
2023-08-15T16:53:26.841Z,100978.31
2023-08-15T16:55:58.896Z,100979.75
2023-08-15T16:58:31.915Z,100982.59
2023-08-15T17:01:03.806Z,100987.97
2023-08-15T17:03:35.784Z,100996.16
2023-08-15T17:06:07.774Z,100996.16
2023-08-15T17:08:39.648Z,101000.56
2023-08-15T17:11:11.621Z,101011.75
2023-08-15T17:13:47.103Z,101021.03
2023-08-15T17:16:19.389Z,101025.22
2023-08-15T17:18:51.451Z,101014.03
2023-08-15T17:21:23.366Z,101014.03
2023-08-15T17:23:55.223Z,101012.88
2023-08-15T17:26:27.594Z,101007.41
2023-08-15T17:29:01.463Z,101012.03
2023-08-15T17:31:33.406Z,101005.59
2023-08-15T17:34:05.350Z,101004.09
2023-08-15T17:36:37.277Z,101013.25
2023-08-15T17:39:10.540Z,101023.34
2023-08-15T17:41:44.196Z,101019.91
2023-08-15T17:44:19.665Z,101025.63
2023-08-15T17:46:51.820Z,101025.41
2023-08-15T17:49:24.006Z,101032.75
2023-08-15T17:51:55.807Z,101032.75
2023-08-15T17:54:27.662Z,101033.81
2023-08-15T17:56:59.557Z,101028.84
2023-08-15T17:59:32.623Z,101035.38
2023-08-15T18:02:04.689Z,101031.44
2023-08-15T18:04:36.609Z,101031.56
2023-08-15T18:07:09.939Z,101034.78
2023-08-15T18:09:41.922Z,101033.47
2023-08-15T18:12:13.854Z,101045.97
2023-08-15T18:14:47.171Z,101046.28
2023-08-15T18:17:19.104Z,101046.34
2023-08-15T18:19:51.032Z,101044.81
2023-08-15T18:22:23.780Z,101054.22
2023-08-15T18:24:55.551Z,101061.25
2023-08-15T18:27:27.466Z,101053.63
2023-08-15T18:30:02.124Z,101056.13
2023-08-15T18:32:34.385Z,101066.72
2023-08-15T18:35:06.504Z,101077.38
2023-08-15T18:37:39.053Z,101086.84
2023-08-15T18:40:13.341Z,101098.38
2023-08-15T18:42:45.395Z,101098.63
2023-08-15T18:45:19.042Z,101106.38
2023-08-15T18:47:51.108Z,101109.00
2023-08-15T18:50:23.050Z,101117.34
2023-08-15T18:52:55.020Z,101118.91
2023-08-15T18:55:26.979Z,101115.41
2023-08-15T18:57:58.943Z,101110.84
2023-08-15T19:00:32.073Z,101120.47
2023-08-15T19:03:04.229Z,101121.44
2023-08-15T19:05:36.320Z,101127.31
2023-08-15T19:08:08.296Z,101134.56
2023-08-15T19:10:40.184Z,101150.09
2023-08-15T19:13:12.347Z,101152.47
2023-08-15T19:15:45.700Z,101156.50
2023-08-15T19:18:17.817Z,101151.47
2023-08-15T19:20:49.553Z,101158.13
2023-08-15T19:23:21.613Z,101162.91
2023-08-15T19:25:53.510Z,101165.56
2023-08-15T19:28:26.852Z,101174.19
2023-08-15T19:31:03.776Z,101173.59
2023-08-15T19:33:37.103Z,101177.69
2023-08-15T19:36:09.920Z,101180.97
2023-08-15T19:38:41.961Z,101178.38
2023-08-15T19:41:14.582Z,101180.25
2023-08-15T19:43:47.073Z,101185.97
2023-08-15T19:46:20.050Z,101180.50
2023-08-15T19:48:52.066Z,101184.75
2023-08-15T19:51:24.356Z,101178.91
2023-08-15T19:53:56.702Z,101179.38
2023-08-15T19:56:28.444Z,101178.78
2023-08-15T19:59:00.408Z,101172.69
2023-08-15T20:01:33.774Z,101173.16
2023-08-15T20:04:05.791Z,101166.94
2023-08-15T20:06:37.719Z,101172.38
2023-08-15T20:09:10.271Z,101166.09
2023-08-15T20:11:42.193Z,101158.16
2023-08-15T20:14:14.122Z,101162.38
2023-08-15T20:16:47.620Z,101152.00
2023-08-15T20:19:20.067Z,101153.25
2023-08-15T20:21:52.764Z,101151.56
2023-08-15T20:24:25.048Z,101148.38
2023-08-15T20:26:57.176Z,101147.69
2023-08-15T20:29:29.217Z,101145.19
2023-08-15T20:32:02.457Z,101142.69
2023-08-15T20:34:34.907Z,101136.03
2023-08-15T20:37:07.682Z,101137.91
2023-08-15T20:39:39.719Z,101132.69
2023-08-15T20:42:13.397Z,101125.56
2023-08-15T20:44:45.620Z,101138.19
2023-08-15T20:47:18.630Z,101137.81
2023-08-15T20:49:51.069Z,101147.66
2023-08-15T20:52:23.114Z,101139.94
2023-08-15T20:54:54.929Z,101141.16
2023-08-15T20:57:26.996Z,101146.03
2023-08-15T20:59:59.484Z,101144.97
2023-08-15T21:02:32.871Z,101148.38
2023-08-15T21:05:06.383Z,101151.53
2023-08-15T21:07:38.244Z,101156.41
2023-08-15T21:10:12.670Z,101148.88
2023-08-15T21:12:45.188Z,101149.28
2023-08-15T21:15:17.091Z,101140.91
2023-08-15T21:17:50.303Z,101148.50
2023-08-15T21:20:22.299Z,101144.78
2023-08-15T21:22:54.260Z,101145.16
2023-08-15T21:25:26.097Z,101149.53
2023-08-15T21:27:58.313Z,101146.81
2023-08-15T21:30:30.429Z,101148.94
2023-08-15T21:33:03.707Z,101153.16
2023-08-15T21:35:35.786Z,101151.53
2023-08-15T21:38:07.706Z,101164.78
2023-08-15T21:40:39.640Z,101162.06
2023-08-15T21:43:11.593Z,101172.94
2023-08-15T21:45:43.805Z,101171.72
2023-08-15T21:48:17.928Z,101170.31
2023-08-15T21:50:50.159Z,101167.59
2023-08-15T21:53:22.150Z,101175.81
2023-08-15T21:55:54.351Z,101174.38
2023-08-15T21:58:26.029Z,101178.38
2023-08-15T22:00:58.176Z,101178.59
2023-08-15T22:03:32.046Z,101181.13
2023-08-15T22:06:04.023Z,101175.28
2023-08-15T22:08:35.903Z,101176.56
2023-08-15T22:11:07.780Z,101178.69
2023-08-15T22:13:39.741Z,101188.50
2023-08-15T22:16:11.672Z,101191.91
2023-08-15T22:18:44.928Z,101182.66
2023-08-15T22:21:16.974Z,101189.19
2023-08-15T22:23:50.277Z,101195.50
2023-08-15T22:26:23.183Z,101195.09
2023-08-15T22:28:55.021Z,101202.44
2023-08-15T22:31:27.002Z,101207.03
2023-08-15T22:34:00.126Z,101208.50
2023-08-15T22:36:32.036Z,101212.25
2023-08-15T22:39:05.409Z,101214.75
2023-08-15T22:41:37.313Z,101221.28
2023-08-15T22:44:10.382Z,101223.00
2023-08-15T22:46:42.126Z,101224.06
2023-08-15T22:49:15.325Z,101213.81
2023-08-15T22:51:47.480Z,101208.22
2023-08-15T22:54:19.545Z,101219.09
2023-08-15T22:56:51.480Z,101224.13
2023-08-15T22:59:23.335Z,101219.53
2023-08-15T23:01:55.230Z,101219.97
2023-08-15T23:04:28.402Z,101222.66
2023-08-15T23:07:00.059Z,101213.03
2023-08-15T23:09:31.999Z,101230.00
2023-08-15T23:12:04.190Z,101220.78
2023-08-15T23:14:35.894Z,101226.66
2023-08-15T23:17:08.599Z,101232.75
2023-08-15T23:19:41.597Z,101226.88
2023-08-15T23:22:13.534Z,101228.34
2023-08-15T23:24:45.604Z,101230.22
2023-08-15T23:27:17.634Z,101225.63
2023-08-15T23:29:49.572Z,101227.50
2023-08-15T23:32:21.623Z,101229.63
2023-08-15T23:34:54.930Z,101228.78
2023-08-15T23:37:27.085Z,101227.94
2023-08-15T23:39:59.028Z,101232.97
2023-08-15T23:42:30.927Z,101234.84
2023-08-15T23:45:04.123Z,101235.03
2023-08-15T23:47:36.050Z,101238.38
2023-08-15T23:50:10.427Z,101234.59
2023-08-15T23:52:42.079Z,101232.13
2023-08-15T23:55:13.984Z,101231.25
2023-08-15T23:57:45.920Z,101240.47
